Terminal Aerodrome Forecast
Issued by NWS

Home | Current Version | Previous Version | Text Only | Print | Product List | Glossary On
Versions: 1 2 3 4 5 6 7 8 9 10 11 12 13 14
333
FTUS46 KPDT 271733
TAFRDM
TAF
KRDM 271733Z 2718/2818 23008KT P6SM SCT050 BKN150
     FM272200 24010KT P6SM VCSH OVC050=

USA.gov is the U.S. government's official web portal to all federal, state and local government web resources and services.